sensor_id;sensor_type;location;lat;lon;timestamp;P1;durP1;ratioP1;P2;durP2;ratioP2
34152;SDS011;20426;48.372;10.888;2024-01-30T00:00:11;8.50;;;4.55;;
34152;SDS011;20426;48.372;10.888;2024-01-30T00:00:42;8.98;;;4.65;;
34152;SDS011;20426;48.372;10.888;2024-01-30T00:01:12;8.18;;;4.68;;
34152;SDS011;20426;48.372;10.888;2024-01-30T00:01:43;6.25;;;5.05;;
34152;SDS011;20426;48.372;10.888;2024-01-30T00:02:14;6.22;;;4.75;;
34152;SDS011;20426;48.372;10.888;2024-01-30T00:02:45;12.45;;;6.13;;
34152;SDS011;20426;48.372;10.888;2024-01-30T00:03:16;11.65;;;5.57;;
34152;SDS011;20426;48.372;10.888;2024-01-30T00:03:46;9.55;;;5.43;;
34152;SDS011;20426;48.372;10.888;2024-01-30T00:04:17;10.55;;;5.43;;
34152;SDS011;20426;48.372;10.888;2024-01-30T00:04:48;7.65;;;4.90;;
34152;SDS011;20426;48.372;10.888;2024-01-30T00:05:18;8.57;;;5.72;;
34152;SDS011;20426;48.372;10.888;2024-01-30T00:05:49;7.50;;;4.80;;
34152;SDS011;20426;48.372;10.888;2024-01-30T00:06:20;7.50;;;5.30;;
34152;SDS011;20426;48.372;10.888;2024-01-30T00:06:51;8.82;;;5.50;;
34152;SDS011;20426;48.372;10.888;2024-01-30T00:07:23;8.73;;;4.90;;
34152;SDS011;20426;48.372;10.888;2024-01-30T00:07:53;9.43;;;5.47;;
34152;SDS011;20426;48.372;10.888;2024-01-30T00:08:24;7.45;;;5.10;;
34152;SDS011;20426;48.372;10.888;2024-01-30T00:08:55;7.80;;;5.30;;
34152;SDS011;20426;48.372;10.888;2024-01-30T00:09:25;9.18;;;5.00;;
34152;SDS011;20426;48.372;10.888;2024-01-30T00:09:56;11.38;;;6.15;;
34152;SDS011;20426;48.372;10.888;2024-01-30T00:10:27;9.50;;;5.80;;
34152;SDS011;20426;48.372;10.888;2024-01-30T00:10:57;7.45;;;4.75;;
34152;SDS011;20426;48.372;10.888;2024-01-30T00:11:28;8.07;;;5.55;;
34152;SDS011;20426;48.372;10.888;2024-01-30T00:11:59;9.27;;;5.18;;
34152;SDS011;20426;48.372;10.888;2024-01-30T00:12:30;9.63;;;5.15;;
34152;SDS011;20426;48.372;10.888;2024-01-30T00:13:02;7.05;;;5.10;;
34152;SDS011;20426;48.372;10.888;2024-01-30T00:13:32;8.43;;;5.20;;
34152;SDS011;20426;48.372;10.888;2024-01-30T00:14:03;7.63;;;4.63;;
34152;SDS011;20426;48.372;10.888;2024-01-30T00:14:34;9.52;;;5.60;;
34152;SDS011;20426;48.372;10.888;2024-01-30T00:15:05;9.50;;;4.82;;
34152;SDS011;20426;48.372;10.888;2024-01-30T00:15:38;10.45;;;6.05;;
34152;SDS011;20426;48.372;10.888;2024-01-30T00:16:16;8.63;;;5.20;;
34152;SDS011;20426;48.372;10.888;2024-01-30T00:16:51;8.80;;;5.50;;
34152;SDS011;20426;48.372;10.888;2024-01-30T00:17:22;9.10;;;5.82;;
34152;SDS011;20426;48.372;10.888;2024-01-30T00:17:55;8.05;;;5.43;;
34152;SDS011;20426;48.372;10.888;2024-01-30T00:18:26;8.63;;;5.15;;
34152;SDS011;20426;48.372;10.888;2024-01-30T00:18:57;9.10;;;5.40;;
34152;SDS011;20426;48.372;10.888;2024-01-30T00:19:28;9.10;;;5.38;;
34152;SDS011;20426;48.372;10.888;2024-01-30T00:19:58;8.60;;;5.47;;
34152;SDS011;20426;48.372;10.888;2024-01-30T00:20:29;7.20;;;4.97;;
34152;SDS011;20426;48.372;10.888;2024-01-30T00:21:00;9.75;;;5.10;;
34152;SDS011;20426;48.372;10.888;2024-01-30T00:21:30;9.02;;;4.88;;
34152;SDS011;20426;48.372;10.888;2024-01-30T00:22:01;11.20;;;5.43;;
34152;SDS011;20426;48.372;10.888;2024-01-30T00:22:32;7.72;;;5.30;;
34152;SDS011;20426;48.372;10.888;2024-01-30T00:23:03;8.63;;;5.05;;
34152;SDS011;20426;48.372;10.888;2024-01-30T00:23:34;6.95;;;4.78;;
34152;SDS011;20426;48.372;10.888;2024-01-30T00:24:04;6.75;;;4.85;;
34152;SDS011;20426;48.372;10.888;2024-01-30T00:24:35;7.45;;;5.20;;
34152;SDS011;20426;48.372;10.888;2024-01-30T00:25:06;8.27;;;5.28;;
34152;SDS011;20426;48.372;10.888;2024-01-30T00:25:37;5.88;;;4.90;;
34152;SDS011;20426;48.372;10.888;2024-01-30T00:26:07;9.18;;;5.80;;
34152;SDS011;20426;48.372;10.888;2024-01-30T00:26:38;6.60;;;4.43;;
34152;SDS011;20426;48.372;10.888;2024-01-30T00:27:09;8.10;;;5.07;;
34152;SDS011;20426;48.372;10.888;2024-01-30T00:27:40;8.10;;;4.57;;
34152;SDS011;20426;48.372;10.888;2024-01-30T00:28:11;8.52;;;4.10;;
34152;SDS011;20426;48.372;10.888;2024-01-30T00:28:42;7.65;;;4.47;;
34152;SDS011;20426;48.372;10.888;2024-01-30T00:29:13;6.40;;;4.57;;
34152;SDS011;20426;48.372;10.888;2024-01-30T00:29:49;8.45;;;4.78;;
34152;SDS011;20426;48.372;10.888;2024-01-30T00:30:20;6.45;;;4.60;;
34152;SDS011;20426;48.372;10.888;2024-01-30T00:30:51;6.80;;;4.60;;
34152;SDS011;20426;48.372;10.888;2024-01-30T00:31:22;11.32;;;5.13;;
34152;SDS011;20426;48.372;10.888;2024-01-30T00:31:52;8.10;;;4.68;;
34152;SDS011;20426;48.372;10.888;2024-01-30T00:32:23;8.77;;;4.90;;
34152;SDS011;20426;48.372;10.888;2024-01-30T00:32:54;8.07;;;5.25;;
34152;SDS011;20426;48.372;10.888;2024-01-30T00:33:24;7.75;;;4.78;;
34152;SDS011;20426;48.372;10.888;2024-01-30T00:33:55;7.78;;;4.90;;
34152;SDS011;20426;48.372;10.888;2024-01-30T00:34:26;6.07;;;4.43;;
34152;SDS011;20426;48.372;10.888;2024-01-30T00:34:57;10.98;;;4.82;;
34152;SDS011;20426;48.372;10.888;2024-01-30T00:35:27;6.13;;;3.78;;
34152;SDS011;20426;48.372;10.888;2024-01-30T00:35:59;8.05;;;3.70;;
34152;SDS011;20426;48.372;10.888;2024-01-30T00:36:30;6.20;;;4.35;;
34152;SDS011;20426;48.372;10.888;2024-01-30T00:37:00;6.90;;;4.75;;
34152;SDS011;20426;48.372;10.888;2024-01-30T00:37:31;7.80;;;4.57;;
34152;SDS011;20426;48.372;10.888;2024-01-30T00:38:02;7.65;;;5.38;;
34152;SDS011;20426;48.372;10.888;2024-01-30T00:38:33;6.22;;;4.40;;
34152;SDS011;20426;48.372;10.888;2024-01-30T00:39:03;8.40;;;4.45;;
34152;SDS011;20426;48.372;10.888;2024-01-30T00:39:37;7.45;;;4.53;;
34152;SDS011;20426;48.372;10.888;2024-01-30T00:40:08;6.57;;;4.35;;
34152;SDS011;20426;48.372;10.888;2024-01-30T00:40:40;6.57;;;4.72;;
34152;SDS011;20426;48.372;10.888;2024-01-30T00:41:11;8.98;;;5.28;;
34152;SDS011;20426;48.372;10.888;2024-01-30T00:41:42;6.25;;;4.32;;
34152;SDS011;20426;48.372;10.888;2024-01-30T00:42:13;7.03;;;4.88;;
34152;SDS011;20426;48.372;10.888;2024-01-30T00:42:44;6.70;;;4.60;;
34152;SDS011;20426;48.372;10.888;2024-01-30T00:43:15;9.13;;;4.75;;
34152;SDS011;20426;48.372;10.888;2024-01-30T00:43:46;7.07;;;4.47;;
34152;SDS011;20426;48.372;10.888;2024-01-30T00:44:17;6.13;;;4.10;;
34152;SDS011;20426;48.372;10.888;2024-01-30T00:44:48;6.75;;;3.78;;
34152;SDS011;20426;48.372;10.888;2024-01-30T00:45:18;6.47;;;3.92;;
34152;SDS011;20426;48.372;10.888;2024-01-30T00:45:49;6.93;;;4.35;;
34152;SDS011;20426;48.372;10.888;2024-01-30T00:46:22;11.50;;;4.97;;
34152;SDS011;20426;48.372;10.888;2024-01-30T00:46:52;7.55;;;4.65;;
34152;SDS011;20426;48.372;10.888;2024-01-30T00:47:23;7.63;;;4.95;;
34152;SDS011;20426;48.372;10.888;2024-01-30T00:47:54;7.43;;;4.18;;
34152;SDS011;20426;48.372;10.888;2024-01-30T00:48:25;5.63;;;4.45;;
34152;SDS011;20426;48.372;10.888;2024-01-30T00:48:55;8.30;;;5.22;;
34152;SDS011;20426;48.372;10.888;2024-01-30T00:49:26;6.78;;;4.32;;
34152;SDS011;20426;48.372;10.888;2024-01-30T00:49:57;9.35;;;5.38;;
34152;SDS011;20426;48.372;10.888;2024-01-30T00:50:27;9.23;;;4.35;;
34152;SDS011;20426;48.372;10.888;2024-01-30T00:50:58;8.15;;;5.03;;
34152;SDS011;20426;48.372;10.888;2024-01-30T00:51:29;8.52;;;4.38;;
34152;SDS011;20426;48.372;10.888;2024-01-30T00:52:00;9.10;;;4.82;;
34152;SDS011;20426;48.372;10.888;2024-01-30T00:52:30;5.93;;;4.38;;
34152;SDS011;20426;48.372;10.888;2024-01-30T00:53:02;7.65;;;4.40;;
34152;SDS011;20426;48.372;10.888;2024-01-30T00:53:33;5.28;;;4.22;;
34152;SDS011;20426;48.372;10.888;2024-01-30T00:54:03;10.13;;;5.15;;
34152;SDS011;20426;48.372;10.888;2024-01-30T00:54:34;7.45;;;4.20;;
34152;SDS011;20426;48.372;10.888;2024-01-30T00:55:05;7.45;;;4.20;;
34152;SDS011;20426;48.372;10.888;2024-01-30T00:55:36;5.93;;;4.43;;
34152;SDS011;20426;48.372;10.888;2024-01-30T00:56:07;6.75;;;4.97;;
34152;SDS011;20426;48.372;10.888;2024-01-30T00:56:38;5.35;;;4.00;;
34152;SDS011;20426;48.372;10.888;2024-01-30T00:57:08;7.70;;;4.50;;
34152;SDS011;20426;48.372;10.888;2024-01-30T00:57:39;6.25;;;4.22;;
34152;SDS011;20426;48.372;10.888;2024-01-30T00:58:10;7.85;;;5.13;;
34152;SDS011;20426;48.372;10.888;2024-01-30T00:58:41;9.15;;;4.63;;
34152;SDS011;20426;48.372;10.888;2024-01-30T00:59:11;7.50;;;4.88;;
34152;SDS011;20426;48.372;10.888;2024-01-30T00:59:42;8.57;;;5.57;;
34152;SDS011;20426;48.372;10.888;2024-01-30T01:00:13;10.68;;;5.20;;
34152;SDS011;20426;48.372;10.888;2024-01-30T01:00:47;7.60;;;5.10;;
34152;SDS011;20426;48.372;10.888;2024-01-30T01:01:17;8.75;;;5.43;;
34152;SDS011;20426;48.372;10.888;2024-01-30T01:01:48;8.35;;;4.85;;
34152;SDS011;20426;48.372;10.888;2024-01-30T01:02:19;5.93;;;5.00;;
34152;SDS011;20426;48.372;10.888;2024-01-30T01:02:50;10.02;;;5.50;;
34152;SDS011;20426;48.372;10.888;2024-01-30T01:03:21;6.57;;;4.18;;
34152;SDS011;20426;48.372;10.888;2024-01-30T01:03:51;6.13;;;4.55;;
34152;SDS011;20426;48.372;10.888;2024-01-30T01:04:22;8.02;;;5.47;;
34152;SDS011;20426;48.372;10.888;2024-01-30T01:04:52;6.32;;;4.65;;
34152;SDS011;20426;48.372;10.888;2024-01-30T01:05:23;7.05;;;4.20;;
34152;SDS011;20426;48.372;10.888;2024-01-30T01:05:54;8.23;;;5.13;;
34152;SDS011;20426;48.372;10.888;2024-01-30T01:06:25;6.15;;;4.55;;
34152;SDS011;20426;48.372;10.888;2024-01-30T01:06:55;7.63;;;4.43;;
34152;SDS011;20426;48.372;10.888;2024-01-30T01:07:26;10.77;;;5.30;;
34152;SDS011;20426;48.372;10.888;2024-01-30T01:07:57;8.63;;;5.47;;
34152;SDS011;20426;48.372;10.888;2024-01-30T01:08:27;9.25;;;4.82;;
34152;SDS011;20426;48.372;10.888;2024-01-30T01:08:58;7.30;;;5.47;;
34152;SDS011;20426;48.372;10.888;2024-01-30T01:09:29;9.05;;;5.32;;
34152;SDS011;20426;48.372;10.888;2024-01-30T01:09:59;7.97;;;5.20;;
34152;SDS011;20426;48.372;10.888;2024-01-30T01:10:30;7.78;;;5.18;;
34152;SDS011;20426;48.372;10.888;2024-01-30T01:11:01;7.65;;;5.10;;
34152;SDS011;20426;48.372;10.888;2024-01-30T01:11:31;7.38;;;4.63;;
34152;SDS011;20426;48.372;10.888;2024-01-30T01:12:02;7.65;;;5.10;;
34152;SDS011;20426;48.372;10.888;2024-01-30T01:12:33;8.40;;;4.97;;
34152;SDS011;20426;48.372;10.888;2024-01-30T01:13:04;8.55;;;5.25;;
34152;SDS011;20426;48.372;10.888;2024-01-30T01:13:35;8.00;;;5.05;;
34152;SDS011;20426;48.372;10.888;2024-01-30T01:14:06;6.43;;;4.78;;
34152;SDS011;20426;48.372;10.888;2024-01-30T01:14:36;7.32;;;4.43;;
34152;SDS011;20426;48.372;10.888;2024-01-30T01:15:07;8.30;;;5.10;;
34152;SDS011;20426;48.372;10.888;2024-01-30T01:15:40;8.45;;;4.20;;
34152;SDS011;20426;48.372;10.888;2024-01-30T01:16:10;7.22;;;4.43;;
34152;SDS011;20426;48.372;10.888;2024-01-30T01:16:41;6.72;;;4.22;;
34152;SDS011;20426;48.372;10.888;2024-01-30T01:17:12;7.65;;;4.35;;
34152;SDS011;20426;48.372;10.888;2024-01-30T01:17:42;7.43;;;4.65;;
34152;SDS011;20426;48.372;10.888;2024-01-30T01:18:13;7.05;;;4.15;;
34152;SDS011;20426;48.372;10.888;2024-01-30T01:18:44;10.57;;;4.78;;
34152;SDS011;20426;48.372;10.888;2024-01-30T01:19:14;4.95;;;4.10;;
34152;SDS011;20426;48.372;10.888;2024-01-30T01:19:45;5.47;;;4.20;;
34152;SDS011;20426;48.372;10.888;2024-01-30T01:20:16;8.20;;;4.55;;
34152;SDS011;20426;48.372;10.888;2024-01-30T01:20:46;5.28;;;3.97;;
34152;SDS011;20426;48.372;10.888;2024-01-30T01:21:17;5.88;;;4.05;;
34152;SDS011;20426;48.372;10.888;2024-01-30T01:21:48;7.38;;;4.63;;
34152;SDS011;20426;48.372;10.888;2024-01-30T01:22:18;4.60;;;3.28;;
34152;SDS011;20426;48.372;10.888;2024-01-30T01:22:49;7.25;;;4.25;;
34152;SDS011;20426;48.372;10.888;2024-01-30T01:23:19;5.63;;;3.63;;
34152;SDS011;20426;48.372;10.888;2024-01-30T01:23:50;7.40;;;4.55;;
34152;SDS011;20426;48.372;10.888;2024-01-30T01:24:21;6.75;;;4.50;;
34152;SDS011;20426;48.372;10.888;2024-01-30T01:24:52;6.68;;;4.50;;
34152;SDS011;20426;48.372;10.888;2024-01-30T01:25:22;6.75;;;4.28;;
34152;SDS011;20426;48.372;10.888;2024-01-30T01:25:53;6.57;;;4.43;;
34152;SDS011;20426;48.372;10.888;2024-01-30T01:26:25;4.45;;;3.80;;
34152;SDS011;20426;48.372;10.888;2024-01-30T01:26:56;6.72;;;4.18;;
34152;SDS011;20426;48.372;10.888;2024-01-30T01:27:27;6.50;;;4.30;;
34152;SDS011;20426;48.372;10.888;2024-01-30T01:27:58;6.85;;;4.13;;
34152;SDS011;20426;48.372;10.888;2024-01-30T01:28:31;5.22;;;3.95;;
34152;SDS011;20426;48.372;10.888;2024-01-30T01:29:01;4.93;;;3.72;;
34152;SDS011;20426;48.372;10.888;2024-01-30T01:29:34;6.63;;;3.78;;
34152;SDS011;20426;48.372;10.888;2024-01-30T01:30:05;6.63;;;4.60;;
34152;SDS011;20426;48.372;10.888;2024-01-30T01:30:39;7.47;;;4.03;;
34152;SDS011;20426;48.372;10.888;2024-01-30T01:31:09;5.43;;;4.15;;
34152;SDS011;20426;48.372;10.888;2024-01-30T01:31:40;7.70;;;4.15;;
34152;SDS011;20426;48.372;10.888;2024-01-30T01:32:14;7.50;;;4.32;;
34152;SDS011;20426;48.372;10.888;2024-01-30T01:32:44;5.63;;;3.75;;
34152;SDS011;20426;48.372;10.888;2024-01-30T01:33:20;6.72;;;4.47;;
34152;SDS011;20426;48.372;10.888;2024-01-30T01:33:51;5.35;;;3.75;;
34152;SDS011;20426;48.372;10.888;2024-01-30T01:34:22;7.78;;;4.00;;
34152;SDS011;20426;48.372;10.888;2024-01-30T01:34:56;6.65;;;3.97;;
34152;SDS011;20426;48.372;10.888;2024-01-30T01:35:26;5.97;;;4.10;;
34152;SDS011;20426;48.372;10.888;2024-01-30T01:35:57;9.45;;;5.35;;
34152;SDS011;20426;48.372;10.888;2024-01-30T01:36:28;7.65;;;4.97;;
34152;SDS011;20426;48.372;10.888;2024-01-30T01:36:59;6.35;;;4.72;;
34152;SDS011;20426;48.372;10.888;2024-01-30T01:37:30;12.48;;;5.07;;
34152;SDS011;20426;48.372;10.888;2024-01-30T01:38:01;8.15;;;4.72;;
34152;SDS011;20426;48.372;10.888;2024-01-30T01:38:32;11.48;;;5.43;;
34152;SDS011;20426;48.372;10.888;2024-01-30T01:39:03;7.70;;;4.57;;
34152;SDS011;20426;48.372;10.888;2024-01-30T01:39:34;9.25;;;5.82;;
34152;SDS011;20426;48.372;10.888;2024-01-30T01:40:05;8.15;;;5.10;;
34152;SDS011;20426;48.372;10.888;2024-01-30T01:40:36;8.45;;;5.40;;
34152;SDS011;20426;48.372;10.888;2024-01-30T01:41:09;7.00;;;4.93;;
34152;SDS011;20426;48.372;10.888;2024-01-30T01:41:40;9.10;;;5.35;;
34152;SDS011;20426;48.372;10.888;2024-01-30T01:42:11;8.05;;;4.50;;
34152;SDS011;20426;48.372;10.888;2024-01-30T01:42:42;8.05;;;4.93;;
34152;SDS011;20426;48.372;10.888;2024-01-30T01:43:13;10.20;;;5.40;;
34152;SDS011;20426;48.372;10.888;2024-01-30T01:43:43;8.23;;;4.85;;
34152;SDS011;20426;48.372;10.888;2024-01-30T01:44:14;8.52;;;5.68;;
34152;SDS011;20426;48.372;10.888;2024-01-30T01:44:45;5.47;;;4.05;;
34152;SDS011;20426;48.372;10.888;2024-01-30T01:45:16;6.80;;;4.45;;
34152;SDS011;20426;48.372;10.888;2024-01-30T01:45:46;6.10;;;4.78;;
34152;SDS011;20426;48.372;10.888;2024-01-30T01:46:17;8.23;;;4.30;;
34152;SDS011;20426;48.372;10.888;2024-01-30T01:46:48;8.23;;;5.05;;
34152;SDS011;20426;48.372;10.888;2024-01-30T01:47:19;8.00;;;5.03;;
34152;SDS011;20426;48.372;10.888;2024-01-30T01:47:50;7.13;;;5.05;;
34152;SDS011;20426;48.372;10.888;2024-01-30T01:48:22;6.55;;;4.55;;
34152;SDS011;20426;48.372;10.888;2024-01-30T01:48:53;6.28;;;4.85;;
34152;SDS011;20426;48.372;10.888;2024-01-30T01:49:25;7.47;;;4.70;;
34152;SDS011;20426;48.372;10.888;2024-01-30T01:49:57;5.85;;;3.75;;
34152;SDS011;20426;48.372;10.888;2024-01-30T01:50:28;5.18;;;3.90;;
34152;SDS011;20426;48.372;10.888;2024-01-30T01:50:59;7.03;;;4.35;;
34152;SDS011;20426;48.372;10.888;2024-01-30T01:51:31;7.00;;;4.55;;
34152;SDS011;20426;48.372;10.888;2024-01-30T01:52:05;6.07;;;4.97;;
34152;SDS011;20426;48.372;10.888;2024-01-30T01:52:37;8.27;;;4.22;;
34152;SDS011;20426;48.372;10.888;2024-01-30T01:53:10;6.28;;;3.95;;
34152;SDS011;20426;48.372;10.888;2024-01-30T01:53:42;7.13;;;4.35;;
34152;SDS011;20426;48.372;10.888;2024-01-30T01:54:13;7.03;;;4.97;;
34152;SDS011;20426;48.372;10.888;2024-01-30T01:54:45;7.82;;;4.55;;
34152;SDS011;20426;48.372;10.888;2024-01-30T01:55:17;8.52;;;4.82;;
34152;SDS011;20426;48.372;10.888;2024-01-30T01:55:55;8.32;;;5.35;;
34152;SDS011;20426;48.372;10.888;2024-01-30T01:56:26;8.18;;;4.28;;
34152;SDS011;20426;48.372;10.888;2024-01-30T01:56:58;7.25;;;4.28;;
34152;SDS011;20426;48.372;10.888;2024-01-30T01:57:30;5.88;;;4.10;;
34152;SDS011;20426;48.372;10.888;2024-01-30T01:58:00;5.35;;;4.18;;
34152;SDS011;20426;48.372;10.888;2024-01-30T01:58:32;5.22;;;3.78;;
34152;SDS011;20426;48.372;10.888;2024-01-30T01:59:06;6.30;;;3.95;;
34152;SDS011;20426;48.372;10.888;2024-01-30T01:59:38;5.68;;;3.45;;
34152;SDS011;20426;48.372;10.888;2024-01-30T02:00:09;9.10;;;3.95;;
34152;SDS011;20426;48.372;10.888;2024-01-30T02:00:40;5.38;;;3.90;;
34152;SDS011;20426;48.372;10.888;2024-01-30T02:01:12;4.75;;;3.40;;
34152;SDS011;20426;48.372;10.888;2024-01-30T02:01:43;11.93;;;5.30;;
34152;SDS011;20426;48.372;10.888;2024-01-30T02:02:16;8.18;;;3.50;;
34152;SDS011;20426;48.372;10.888;2024-01-30T02:02:49;5.60;;;3.80;;
34152;SDS011;20426;48.372;10.888;2024-01-30T02:03:20;9.50;;;3.50;;
34152;SDS011;20426;48.372;10.888;2024-01-30T02:03:51;7.43;;;4.43;;
34152;SDS011;20426;48.372;10.888;2024-01-30T02:04:22;5.45;;;3.40;;
34152;SDS011;20426;48.372;10.888;2024-01-30T02:04:53;6.05;;;3.63;;
34152;SDS011;20426;48.372;10.888;2024-01-30T02:05:24;5.18;;;3.78;;
34152;SDS011;20426;48.372;10.888;2024-01-30T02:05:55;6.47;;;3.88;;
34152;SDS011;20426;48.372;10.888;2024-01-30T02:06:26;5.57;;;3.80;;
34152;SDS011;20426;48.372;10.888;2024-01-30T02:06:57;5.88;;;3.78;;
34152;SDS011;20426;48.372;10.888;2024-01-30T02:07:28;4.97;;;3.35;;
34152;SDS011;20426;48.372;10.888;2024-01-30T02:07:59;5.22;;;3.13;;
34152;SDS011;20426;48.372;10.888;2024-01-30T02:08:29;6.35;;;4.18;;
34152;SDS011;20426;48.372;10.888;2024-01-30T02:09:01;5.38;;;3.85;;
34152;SDS011;20426;48.372;10.888;2024-01-30T02:09:31;6.35;;;4.03;;
34152;SDS011;20426;48.372;10.888;2024-01-30T02:10:02;5.88;;;3.70;;
34152;SDS011;20426;48.372;10.888;2024-01-30T02:10:33;6.57;;;3.65;;
34152;SDS011;20426;48.372;10.888;2024-01-30T02:11:04;5.75;;;3.83;;
34152;SDS011;20426;48.372;10.888;2024-01-30T02:11:35;8.13;;;4.53;;
34152;SDS011;20426;48.372;10.888;2024-01-30T02:12:06;6.03;;;3.90;;
34152;SDS011;20426;48.372;10.888;2024-01-30T02:12:37;10.38;;;4.43;;
34152;SDS011;20426;48.372;10.888;2024-01-30T02:13:07;7.85;;;4.18;;
34152;SDS011;20426;48.372;10.888;2024-01-30T02:13:38;5.20;;;3.72;;
34152;SDS011;20426;48.372;10.888;2024-01-30T02:14:09;4.38;;;3.13;;
34152;SDS011;20426;48.372;10.888;2024-01-30T02:14:45;6.25;;;3.88;;
34152;SDS011;20426;48.372;10.888;2024-01-30T02:15:17;5.25;;;3.40;;
34152;SDS011;20426;48.372;10.888;2024-01-30T02:15:51;6.55;;;3.58;;
34152;SDS011;20426;48.372;10.888;2024-01-30T02:16:22;4.88;;;3.28;;
34152;SDS011;20426;48.372;10.888;2024-01-30T02:16:52;6.55;;;3.65;;
34152;SDS011;20426;48.372;10.888;2024-01-30T02:17:23;6.07;;;3.80;;
34152;SDS011;20426;48.372;10.888;2024-01-30T02:17:54;6.60;;;3.60;;
34152;SDS011;20426;48.372;10.888;2024-01-30T02:18:24;8.73;;;4.25;;
34152;SDS011;20426;48.372;10.888;2024-01-30T02:18:55;8.10;;;3.70;;
34152;SDS011;20426;48.372;10.888;2024-01-30T02:19:26;4.65;;;2.83;;
34152;SDS011;20426;48.372;10.888;2024-01-30T02:19:56;4.28;;;3.60;;
34152;SDS011;20426;48.372;10.888;2024-01-30T02:20:27;4.97;;;3.67;;
34152;SDS011;20426;48.372;10.888;2024-01-30T02:21:04;4.07;;;3.13;;
34152;SDS011;20426;48.372;10.888;2024-01-30T02:21:35;4.68;;;3.85;;
34152;SDS011;20426;48.372;10.888;2024-01-30T02:22:05;6.60;;;3.97;;
34152;SDS011;20426;48.372;10.888;2024-01-30T02:22:37;7.22;;;3.58;;
34152;SDS011;20426;48.372;10.888;2024-01-30T02:23:09;6.43;;;3.40;;
34152;SDS011;20426;48.372;10.888;2024-01-30T02:23:42;4.28;;;3.33;;
34152;SDS011;20426;48.372;10.888;2024-01-30T02:24:14;5.57;;;2.88;;
34152;SDS011;20426;48.372;10.888;2024-01-30T02:24:45;6.43;;;3.92;;
34152;SDS011;20426;48.372;10.888;2024-01-30T02:25:16;5.85;;;3.92;;
34152;SDS011;20426;48.372;10.888;2024-01-30T02:25:46;6.05;;;4.00;;
34152;SDS011;20426;48.372;10.888;2024-01-30T02:26:17;6.40;;;4.20;;
34152;SDS011;20426;48.372;10.888;2024-01-30T02:26:48;4.57;;;3.40;;
34152;SDS011;20426;48.372;10.888;2024-01-30T02:27:18;6.07;;;3.70;;
34152;SDS011;20426;48.372;10.888;2024-01-30T02:27:49;4.97;;;3.13;;
34152;SDS011;20426;48.372;10.888;2024-01-30T02:28:20;4.70;;;2.92;;
34152;SDS011;20426;48.372;10.888;2024-01-30T02:28:50;4.07;;;2.95;;
34152;SDS011;20426;48.372;10.888;2024-01-30T02:29:21;3.47;;;3.15;;
34152;SDS011;20426;48.372;10.888;2024-01-30T02:29:52;4.20;;;2.55;;
34152;SDS011;20426;48.372;10.888;2024-01-30T02:30:22;4.60;;;3.45;;
34152;SDS011;20426;48.372;10.888;2024-01-30T02:30:53;4.60;;;3.58;;
34152;SDS011;20426;48.372;10.888;2024-01-30T02:31:25;5.82;;;3.45;;
34152;SDS011;20426;48.372;10.888;2024-01-30T02:31:55;5.32;;;3.47;;
34152;SDS011;20426;48.372;10.888;2024-01-30T02:32:26;4.80;;;2.80;;
34152;SDS011;20426;48.372;10.888;2024-01-30T02:32:57;5.90;;;3.28;;
34152;SDS011;20426;48.372;10.888;2024-01-30T02:33:28;6.75;;;3.85;;
34152;SDS011;20426;48.372;10.888;2024-01-30T02:33:58;6.03;;;3.50;;
34152;SDS011;20426;48.372;10.888;2024-01-30T02:34:29;5.63;;;3.08;;
34152;SDS011;20426;48.372;10.888;2024-01-30T02:35:00;5.15;;;3.28;;
34152;SDS011;20426;48.372;10.888;2024-01-30T02:35:30;6.07;;;3.55;;
34152;SDS011;20426;48.372;10.888;2024-01-30T02:36:01;5.03;;;3.42;;
34152;SDS011;20426;48.372;10.888;2024-01-30T02:36:32;3.72;;;3.03;;
34152;SDS011;20426;48.372;10.888;2024-01-30T02:37:03;4.47;;;2.97;;
34152;SDS011;20426;48.372;10.888;2024-01-30T02:37:34;6.80;;;3.20;;
34152;SDS011;20426;48.372;10.888;2024-01-30T02:38:04;4.68;;;3.30;;
34152;SDS011;20426;48.372;10.888;2024-01-30T02:38:35;5.10;;;3.00;;
34152;SDS011;20426;48.372;10.888;2024-01-30T02:39:06;5.20;;;3.00;;
34152;SDS011;20426;48.372;10.888;2024-01-30T02:39:37;5.22;;;2.58;;
34152;SDS011;20426;48.372;10.888;2024-01-30T02:40:07;4.65;;;3.25;;
34152;SDS011;20426;48.372;10.888;2024-01-30T02:40:38;6.03;;;3.10;;
34152;SDS011;20426;48.372;10.888;2024-01-30T02:41:09;3.70;;;2.83;;
34152;SDS011;20426;48.372;10.888;2024-01-30T02:41:39;3.30;;;2.50;;
34152;SDS011;20426;48.372;10.888;2024-01-30T02:42:10;3.70;;;2.65;;
34152;SDS011;20426;48.372;10.888;2024-01-30T02:42:41;5.38;;;2.60;;
34152;SDS011;20426;48.372;10.888;2024-01-30T02:43:11;4.80;;;3.33;;
34152;SDS011;20426;48.372;10.888;2024-01-30T02:43:42;5.15;;;2.85;;
34152;SDS011;20426;48.372;10.888;2024-01-30T02:44:13;4.93;;;2.72;;
34152;SDS011;20426;48.372;10.888;2024-01-30T02:44:44;4.43;;;3.03;;
34152;SDS011;20426;48.372;10.888;2024-01-30T02:45:14;4.13;;;2.83;;
34152;SDS011;20426;48.372;10.888;2024-01-30T02:45:45;4.55;;;2.33;;
34152;SDS011;20426;48.372;10.888;2024-01-30T02:46:16;4.78;;;3.05;;
34152;SDS011;20426;48.372;10.888;2024-01-30T02:46:46;4.65;;;2.85;;
34152;SDS011;20426;48.372;10.888;2024-01-30T02:47:17;5.13;;;3.45;;
34152;SDS011;20426;48.372;10.888;2024-01-30T02:47:47;4.07;;;2.78;;
34152;SDS011;20426;48.372;10.888;2024-01-30T02:48:18;5.00;;;2.95;;
34152;SDS011;20426;48.372;10.888;2024-01-30T02:48:49;5.57;;;3.00;;
34152;SDS011;20426;48.372;10.888;2024-01-30T02:49:20;4.20;;;2.95;;
34152;SDS011;20426;48.372;10.888;2024-01-30T02:49:51;5.30;;;3.28;;
34152;SDS011;20426;48.372;10.888;2024-01-30T02:50:22;3.78;;;2.30;;
34152;SDS011;20426;48.372;10.888;2024-01-30T02:50:52;4.50;;;2.97;;
34152;SDS011;20426;48.372;10.888;2024-01-30T02:51:23;4.07;;;2.65;;
34152;SDS011;20426;48.372;10.888;2024-01-30T02:51:54;2.95;;;2.35;;
34152;SDS011;20426;48.372;10.888;2024-01-30T02:52:26;5.10;;;2.90;;
34152;SDS011;20426;48.372;10.888;2024-01-30T02:52:57;4.53;;;2.90;;
34152;SDS011;20426;48.372;10.888;2024-01-30T02:53:27;2.72;;;2.15;;
34152;SDS011;20426;48.372;10.888;2024-01-30T02:53:58;4.35;;;2.35;;
34152;SDS011;20426;48.372;10.888;2024-01-30T02:54:29;3.47;;;2.42;;
34152;SDS011;20426;48.372;10.888;2024-01-30T02:55:01;4.10;;;2.80;;
34152;SDS011;20426;48.372;10.888;2024-01-30T02:55:32;4.25;;;2.55;;
34152;SDS011;20426;48.372;10.888;2024-01-30T02:56:03;4.93;;;2.97;;
34152;SDS011;20426;48.372;10.888;2024-01-30T02:56:35;5.50;;;2.70;;
34152;SDS011;20426;48.372;10.888;2024-01-30T02:57:06;3.53;;;2.90;;
34152;SDS011;20426;48.372;10.888;2024-01-30T02:57:37;3.80;;;2.60;;
34152;SDS011;20426;48.372;10.888;2024-01-30T02:58:08;3.90;;;2.78;;
34152;SDS011;20426;48.372;10.888;2024-01-30T02:58:39;6.15;;;3.33;;
34152;SDS011;20426;48.372;10.888;2024-01-30T02:59:10;5.85;;;2.95;;
34152;SDS011;20426;48.372;10.888;2024-01-30T02:59:41;4.82;;;2.65;;
34152;SDS011;20426;48.372;10.888;2024-01-30T03:00:12;2.38;;;2.10;;
34152;SDS011;20426;48.372;10.888;2024-01-30T03:00:43;5.07;;;3.08;;
34152;SDS011;20426;48.372;10.888;2024-01-30T03:01:13;4.22;;;3.15;;
34152;SDS011;20426;48.372;10.888;2024-01-30T03:01:44;3.95;;;2.80;;
34152;SDS011;20426;48.372;10.888;2024-01-30T03:02:16;6.50;;;3.30;;
34152;SDS011;20426;48.372;10.888;2024-01-30T03:02:47;4.63;;;3.35;;
34152;SDS011;20426;48.372;10.888;2024-01-30T03:03:17;3.88;;;3.10;;
34152;SDS011;20426;48.372;10.888;2024-01-30T03:03:48;5.15;;;3.70;;
34152;SDS011;20426;48.372;10.888;2024-01-30T03:04:19;3.72;;;3.05;;